createdAt,value
2017-06-02T00:02:10.692Z,101936.17
2017-06-02T00:04:36.906Z,101934.39
2017-06-02T00:07:03.162Z,101929.00
2017-06-02T00:18:18.983Z,101916.92
2017-06-02T00:20:45.179Z,101914.70
2017-06-02T00:23:17.177Z,101911.09
2017-06-02T00:25:43.348Z,101911.58
2017-06-02T00:28:09.635Z,101912.54
2017-06-02T00:30:35.829Z,101912.97
2017-06-02T00:33:01.985Z,101905.41
2017-06-02T00:35:28.138Z,101907.15
2017-06-02T00:37:54.317Z,101911.09
2017-06-02T00:40:20.534Z,101908.02
2017-06-02T00:42:46.727Z,101899.45
2017-06-02T00:45:12.919Z,101890.55
2017-06-02T00:47:39.093Z,101894.16
2017-06-02T00:50:05.281Z,101887.46
2017-06-02T00:52:31.757Z,101891.45
2017-06-02T00:57:54.390Z,101882.50
2017-06-02T01:00:20.549Z,101883.85
2017-06-02T01:02:46.754Z,101878.05
2017-06-02T01:05:12.929Z,101879.82
2017-06-02T01:07:39.073Z,101881.17
2017-06-02T01:18:54.917Z,101875.44
2017-06-02T01:21:21.100Z,101873.66
2017-06-02T01:38:29.566Z,101867.98
2017-06-02T01:40:55.757Z,101862.64
2017-06-02T01:43:21.936Z,101860.81
2017-06-02T01:45:48.122Z,101860.37
2017-06-02T01:48:14.357Z,101854.74
2017-06-02T01:50:40.544Z,101850.70
2017-06-02T01:58:59.890Z,101848.39
2017-06-02T02:01:26.151Z,101844.06
2017-06-02T02:19:25.199Z,101837.37
2017-06-02T02:21:51.442Z,101829.33
2017-06-02T02:24:23.437Z,101827.98
2017-06-02T02:26:49.588Z,101826.59
2017-06-02T02:29:15.781Z,101826.16
2017-06-02T02:31:42.021Z,101822.11
2017-06-02T02:34:08.246Z,101822.59
2017-06-02T02:36:34.454Z,101821.68
2017-06-02T02:39:00.738Z,101821.39
2017-06-02T02:41:26.931Z,101814.56
2017-06-02T02:43:53.098Z,101818.65
2017-06-02T02:46:19.249Z,101824.91
2017-06-02T02:48:45.441Z,101818.22
2017-06-02T02:51:11.668Z,101817.35
2017-06-02T02:59:30.957Z,101808.45
2017-06-02T03:01:57.234Z,101812.05
2017-06-02T03:04:23.384Z,101810.76
2017-06-02T03:06:49.546Z,101812.59
2017-06-02T03:09:21.586Z,101810.38
2017-06-02T03:11:47.919Z,101812.20
2017-06-02T03:14:14.313Z,101804.11
2017-06-02T03:16:40.510Z,101810.47
2017-06-02T03:19:06.650Z,101805.17
2017-06-02T03:21:32.915Z,101802.00
2017-06-02T03:38:41.419Z,101807.98
2017-06-02T03:41:07.585Z,101804.84
2017-06-02T03:43:33.738Z,101799.94
2017-06-02T03:45:59.921Z,101799.94
2017-06-02T03:48:26.177Z,101798.98
2017-06-02T03:50:52.330Z,101799.55
2017-06-02T03:53:18.562Z,101796.77
2017-06-02T03:58:41.193Z,101799.94
2017-06-02T04:01:07.451Z,101794.51
2017-06-02T04:03:33.674Z,101796.81
2017-06-02T04:05:59.870Z,101796.81
2017-06-02T04:08:26.145Z,101793.64
2017-06-02T04:19:42.086Z,101796.81
2017-06-02T04:22:08.305Z,101797.73
2017-06-02T04:36:26.489Z,101805.81
2017-06-02T04:38:52.785Z,101800.38
2017-06-02T04:41:18.979Z,101801.77
2017-06-02T04:43:45.225Z,101808.02
2017-06-02T04:46:11.401Z,101804.89
2017-06-02T04:48:37.622Z,101810.28
2017-06-02T04:51:03.886Z,101802.25
2017-06-02T04:53:30.105Z,101805.42
2017-06-02T04:58:52.755Z,101793.69
2017-06-02T05:01:19.010Z,101802.25
2017-06-02T05:03:45.273Z,101797.30
2017-06-02T05:06:11.440Z,101798.64
2017-06-02T05:08:37.818Z,101804.03
2017-06-02T05:19:53.793Z,101791.04
2017-06-02T05:22:19.972Z,101792.77
2017-06-02T05:39:29.137Z,101783.29
2017-06-02T05:41:55.327Z,101778.73
2017-06-02T05:44:21.526Z,101779.63
2017-06-02T05:46:47.758Z,101778.82
2017-06-02T05:49:14.009Z,101779.22
2017-06-02T05:51:40.296Z,101783.64
2017-06-02T05:59:59.375Z,101783.02
2017-06-02T06:02:25.618Z,101778.72
2017-06-02T06:04:51.941Z,101784.91
2017-06-02T06:07:18.182Z,101788.27
2017-06-02T06:19:01.245Z,101783.70
2017-06-02T06:21:27.493Z,101790.46
2017-06-02T06:23:53.753Z,101791.45
2017-06-02T06:26:25.825Z,101788.69
2017-06-02T06:28:52.037Z,101783.66
2017-06-02T06:31:18.229Z,101781.88
2017-06-02T06:33:44.425Z,101779.99
2017-06-02T06:36:10.659Z,101785.50
2017-06-02T06:38:36.989Z,101782.16
2017-06-02T06:58:42.024Z,101796.21
2017-06-02T07:01:08.257Z,101790.45
2017-06-02T07:03:34.517Z,101781.41
2017-06-02T07:06:00.705Z,101781.34
2017-06-02T07:08:26.936Z,101778.77
2017-06-02T07:19:42.914Z,101779.61
2017-06-02T07:22:09.330Z,101773.66
2017-06-02T07:36:27.313Z,101778.19
2017-06-02T07:38:53.542Z,101766.74
2017-06-02T07:41:25.814Z,101771.45
2017-06-02T07:43:51.999Z,101772.55
2017-06-02T07:46:18.222Z,101770.92
2017-06-02T07:48:44.612Z,101771.36
2017-06-02T07:51:10.771Z,101777.91
2017-06-02T07:53:36.940Z,101775.69
2017-06-02T07:58:59.793Z,101780.41
2017-06-02T08:01:26.346Z,101774.96
2017-06-02T08:03:52.614Z,101774.87
2017-06-02T08:06:18.799Z,101771.16
2017-06-02T08:08:45.220Z,101775.59
2017-06-02T08:20:00.904Z,101765.64
2017-06-02T08:22:27.071Z,101771.84
2017-06-02T08:39:36.146Z,101755.71
2017-06-02T08:59:42.069Z,101752.14
2017-06-02T09:02:08.277Z,101749.69
2017-06-02T09:04:34.567Z,101754.06
2017-06-02T09:07:00.767Z,101747.12
2017-06-02T09:09:26.996Z,101747.50
2017-06-02T09:20:42.765Z,101737.23
2017-06-02T09:23:08.951Z,101740.69
2017-06-02T09:28:31.642Z,101744.09
2017-06-02T09:30:57.906Z,101748.52
2017-06-02T09:33:24.073Z,101746.64
2017-06-02T09:35:50.231Z,101745.14
2017-06-02T09:38:16.500Z,101751.17
2017-06-02T09:41:19.627Z,101747.08
2017-06-02T09:43:45.985Z,101728.94
2017-06-02T09:46:12.253Z,101741.91
2017-06-02T09:48:38.541Z,101745.36
2017-06-02T09:51:04.743Z,101746.08
2017-06-02T09:53:30.930Z,101747.91
2017-06-02T10:05:37.118Z,101742.27
2017-06-02T10:08:03.281Z,101731.81
2017-06-02T10:10:29.957Z,101740.23
2017-06-02T10:12:56.126Z,101733.83
2017-06-02T10:15:23.672Z,101739.55
2017-06-02T10:17:50.088Z,101737.23
2017-06-02T10:20:16.271Z,101742.48
2017-06-02T10:22:42.500Z,101743.76
2017-06-02T10:25:08.726Z,101742.53
2017-06-02T10:27:34.978Z,101743.93
2017-06-02T10:30:01.154Z,101740.84
2017-06-02T10:32:27.306Z,101737.45
2017-06-02T10:34:53.615Z,101736.86
2017-06-02T10:37:19.814Z,101731.80
2017-06-02T10:39:46.114Z,101733.10
2017-06-02T10:42:12.278Z,101730.30
2017-06-02T10:44:38.481Z,101734.02
2017-06-02T10:47:04.707Z,101732.08
2017-06-02T10:49:30.886Z,101725.72
2017-06-02T10:51:57.900Z,101725.57
2017-06-02T10:54:24.115Z,101729.81
2017-06-02T10:56:50.269Z,101726.44
2017-06-02T10:59:16.470Z,101718.78
2017-06-02T11:01:42.687Z,101717.22
2017-06-02T11:04:08.926Z,101716.79
2017-06-02T11:06:35.112Z,101718.91
2017-06-02T11:09:01.377Z,101719.00
2017-06-02T11:11:27.583Z,101714.42
2017-06-02T11:13:53.803Z,101711.67
2017-06-02T11:16:20.061Z,101712.10
2017-06-02T11:18:46.321Z,101703.69
2017-06-02T11:21:12.505Z,101708.06
2017-06-02T11:23:38.714Z,101701.75
2017-06-02T11:26:04.904Z,101704.67
2017-06-02T11:28:31.165Z,101702.56
2017-06-02T11:30:57.333Z,101704.34
2017-06-02T11:33:23.534Z,101704.39
2017-06-02T11:35:49.725Z,101689.23
2017-06-02T11:38:15.886Z,101693.60
2017-06-02T11:40:42.174Z,101680.93
2017-06-02T11:43:08.396Z,101674.61
2017-06-02T11:45:34.560Z,101685.28
2017-06-02T11:48:00.762Z,101679.78
2017-06-02T11:50:26.943Z,101681.29
2017-06-02T11:52:53.221Z,101677.90
2017-06-02T11:55:19.394Z,101677.36
2017-06-02T11:57:45.701Z,101680.22
2017-06-02T12:00:11.878Z,101678.48
2017-06-02T12:02:38.132Z,101679.09
2017-06-02T12:05:04.398Z,101681.69
2017-06-02T12:07:30.598Z,101676.60
2017-06-02T12:09:56.869Z,101672.78
2017-06-02T12:12:23.013Z,101672.78
2017-06-02T12:14:49.253Z,101678.87
2017-06-02T12:17:15.411Z,101674.66
2017-06-02T12:19:41.855Z,101678.33
2017-06-02T12:22:08.038Z,101671.91
2017-06-02T12:24:34.238Z,101669.48
2017-06-02T12:36:40.507Z,101664.89
2017-06-02T12:39:06.724Z,101661.88
2017-06-02T12:41:33.027Z,101658.48
2017-06-02T12:46:25.341Z,101664.46
2017-06-02T12:48:51.516Z,101665.66
2017-06-02T12:51:17.769Z,101670.52
2017-06-02T12:53:44.021Z,101668.09
2017-06-02T12:56:10.185Z,101655.57
2017-06-02T12:58:36.355Z,101661.45
2017-06-02T13:01:02.715Z,101663.17
2017-06-02T13:03:28.981Z,101662.43
2017-06-02T13:05:55.195Z,101663.17
2017-06-02T13:08:21.374Z,101665.18
2017-06-02T13:10:47.548Z,101661.08
2017-06-02T13:13:13.845Z,101661.36
2017-06-02T13:15:40.106Z,101660.92
2017-06-02T13:18:06.325Z,101659.09
2017-06-02T13:20:32.657Z,101657.52
2017-06-02T13:22:58.846Z,101657.25
2017-06-02T13:25:25.017Z,101659.36
2017-06-02T13:27:51.237Z,101662.45
2017-06-02T13:30:17.419Z,101661.38
2017-06-02T13:32:43.749Z,101657.77
2017-06-02T13:35:10.086Z,101663.11
2017-06-02T13:37:36.371Z,101656.84
2017-06-02T13:40:02.817Z,101650.09
2017-06-02T13:42:29.122Z,101657.71
2017-06-02T13:44:55.379Z,101654.27
2017-06-02T13:47:21.570Z,101646.06
2017-06-02T13:49:47.750Z,101640.45
2017-06-02T13:52:14.101Z,101648.39
2017-06-02T13:54:40.375Z,101647.84
2017-06-02T13:57:06.710Z,101647.30
2017-06-02T13:59:32.916Z,101645.47
2017-06-02T14:01:59.132Z,101650.81
2017-06-02T14:04:25.341Z,101648.98
2017-06-02T14:06:51.516Z,101640.65
2017-06-02T14:09:17.794Z,101648.05
2017-06-02T14:11:44.001Z,101636.22
2017-06-02T14:14:10.378Z,101628.28
2017-06-02T14:16:36.576Z,101627.26
2017-06-02T14:19:02.790Z,101627.91
2017-06-02T14:21:29.027Z,101628.28
2017-06-02T14:23:55.303Z,101626.44
2017-06-02T14:26:21.671Z,101620.88
2017-06-02T14:28:47.928Z,101624.75
2017-06-02T14:31:14.129Z,101619.72
2017-06-02T14:33:40.324Z,101611.94
2017-06-02T14:36:06.523Z,101614.64
2017-06-02T14:38:32.846Z,101617.83
2017-06-02T14:40:59.090Z,101611.72
2017-06-02T14:43:25.330Z,101610.31
2017-06-02T14:45:51.530Z,101612.91
2017-06-02T14:48:17.748Z,101613.34
2017-06-02T14:50:44.086Z,101609.98
2017-06-02T14:53:10.279Z,101607.11
2017-06-02T14:55:36.522Z,101608.73
2017-06-02T14:58:02.767Z,101601.06
2017-06-02T15:00:28.992Z,101602.73
2017-06-02T15:02:55.523Z,101601.68
2017-06-02T15:05:21.743Z,101596.16
2017-06-02T15:07:47.969Z,101599.11
2017-06-02T15:10:14.172Z,101598.02
2017-06-02T15:12:40.536Z,101595.44
2017-06-02T15:15:06.878Z,101596.30
2017-06-02T15:17:33.130Z,101605.08
2017-06-02T15:19:59.549Z,101610.05
2017-06-02T15:22:25.799Z,101602.30
2017-06-02T15:24:52.023Z,101599.05
2017-06-02T15:27:18.283Z,101594.83
2017-06-02T15:29:44.506Z,101596.45
2017-06-02T15:32:10.690Z,101596.13
2017-06-02T15:34:37.013Z,101596.07
2017-06-02T15:37:03.190Z,101602.99
2017-06-02T15:39:29.413Z,101598.44
2017-06-02T15:41:55.829Z,101600.42
2017-06-02T15:44:22.102Z,101598.45
2017-06-02T15:46:48.280Z,101596.31
2017-06-02T15:49:14.660Z,101596.67
2017-06-02T15:51:40.885Z,101594.98
2017-06-02T15:54:07.202Z,101594.44
2017-06-02T15:56:33.506Z,101606.48
2017-06-02T15:58:59.703Z,101600.16
2017-06-02T16:01:25.943Z,101598.11
2017-06-02T16:03:52.234Z,101596.50
2017-06-02T16:06:18.445Z,101598.88
2017-06-02T16:08:44.645Z,101595.58
2017-06-02T16:11:11.013Z,101590.17
2017-06-02T16:13:37.220Z,101588.34
2017-06-02T16:16:03.555Z,101591.75
2017-06-02T16:18:29.741Z,101588.64
2017-06-02T16:20:55.973Z,101584.51
2017-06-02T16:23:22.263Z,101588.77
2017-06-02T16:25:48.460Z,101580.98
2017-06-02T16:28:14.734Z,101580.69
2017-06-02T16:30:40.966Z,101574.37
2017-06-02T16:33:07.225Z,101573.19
2017-06-02T16:35:33.411Z,101574.97
2017-06-02T16:37:59.684Z,101569.08
2017-06-02T16:40:25.901Z,101573.08
2017-06-02T16:42:52.131Z,101564.70
2017-06-02T16:45:18.314Z,101568.27
2017-06-02T16:47:44.576Z,101561.69
2017-06-02T16:50:10.883Z,101563.95
2017-06-02T16:52:37.922Z,101562.00
2017-06-02T16:55:04.122Z,101564.91
2017-06-02T16:57:30.315Z,101558.47
2017-06-02T16:59:56.507Z,101555.11
2017-06-02T17:02:22.735Z,101555.86
2017-06-02T17:04:48.958Z,101556.34
2017-06-02T17:07:15.162Z,101553.03
2017-06-02T17:09:41.362Z,101552.23
2017-06-02T17:12:07.542Z,101557.15
2017-06-02T17:14:33.720Z,101559.73
2017-06-02T17:16:59.962Z,101556.03
2017-06-02T17:19:26.399Z,101562.56
2017-06-02T17:21:52.630Z,101561.95
2017-06-02T17:24:18.816Z,101558.13
2017-06-02T17:26:45.108Z,101555.48
2017-06-02T17:29:11.295Z,101557.76
2017-06-02T17:31:37.714Z,101553.76
2017-06-02T17:34:03.948Z,101558.19
2017-06-02T17:36:30.172Z,101556.92
2017-06-02T17:38:56.459Z,101562.91
2017-06-02T17:41:22.669Z,101560.75
2017-06-02T17:43:48.842Z,101564.55
2017-06-02T17:46:15.046Z,101565.81
2017-06-02T17:48:41.389Z,101568.39
2017-06-02T17:51:07.624Z,101567.16
2017-06-02T17:53:33.884Z,101569.05
2017-06-02T17:56:00.565Z,101573.97
2017-06-02T17:58:26.781Z,101575.38
2017-06-02T18:00:53.167Z,101569.77
2017-06-02T18:03:19.384Z,101574.37
2017-06-02T18:05:45.590Z,101569.25
2017-06-02T18:08:11.842Z,101576.44
2017-06-02T18:10:38.048Z,101584.92
2017-06-02T18:13:04.363Z,101585.34
2017-06-02T18:15:30.596Z,101582.13
2017-06-02T18:17:56.778Z,101585.94
2017-06-02T18:20:23.006Z,101585.99
2017-06-02T18:22:49.244Z,101585.73
2017-06-02T18:25:15.488Z,101577.20
2017-06-02T18:27:41.812Z,101580.39
2017-06-02T18:30:08.023Z,101572.83
2017-06-02T18:32:34.248Z,101573.37
2017-06-02T18:35:00.446Z,101573.91
2017-06-02T18:37:26.626Z,101576.73
2017-06-02T18:39:52.916Z,101572.90
2017-06-02T18:42:19.101Z,101573.03
2017-06-02T18:44:45.296Z,101574.55
2017-06-02T18:47:11.469Z,101569.83
2017-06-02T18:49:37.930Z,101570.00
2017-06-02T18:52:04.122Z,101568.38
2017-06-02T18:54:30.337Z,101565.42
2017-06-02T18:56:56.722Z,101562.02
2017-06-02T18:59:22.978Z,101556.03
2017-06-02T19:01:49.226Z,101556.14
2017-06-02T19:13:55.429Z,101575.25
2017-06-02T19:16:21.680Z,101574.55
2017-06-02T19:18:47.870Z,101576.92
2017-06-02T19:21:14.090Z,101573.36
2017-06-02T19:23:40.384Z,101569.91
2017-06-02T19:26:06.565Z,101569.53
2017-06-02T19:28:32.770Z,101566.52
2017-06-02T19:30:59.082Z,101568.95
2017-06-02T19:33:25.309Z,101561.93
2017-06-02T19:35:51.567Z,101561.63
2017-06-02T19:38:17.915Z,101561.20
2017-06-02T19:40:44.186Z,101562.28
2017-06-02T19:43:10.561Z,101556.94
2017-06-02T19:45:37.129Z,101559.31
2017-06-02T19:48:03.330Z,101554.94
2017-06-02T19:50:29.578Z,101557.75
2017-06-02T19:52:55.771Z,101560.83
2017-06-02T19:55:21.945Z,101563.63
2017-06-02T19:57:48.266Z,101573.73
2017-06-02T20:00:14.698Z,101572.42
2017-06-02T20:02:40.941Z,101570.31
2017-06-02T20:05:07.172Z,101567.72
2017-06-02T20:07:33.386Z,101570.74
2017-06-02T20:09:59.649Z,101582.67
2017-06-02T20:12:25.944Z,101577.22
2017-06-02T20:14:52.206Z,101577.75
2017-06-02T20:17:18.522Z,101586.28
2017-06-02T20:19:44.749Z,101580.55
2017-06-02T20:22:11.034Z,101583.31
2017-06-02T20:24:37.218Z,101582.08
2017-06-02T20:27:03.427Z,101580.08
2017-06-02T20:29:29.710Z,101569.67
2017-06-02T20:31:55.897Z,101584.78
2017-06-02T20:34:22.069Z,101579.76
2017-06-02T20:36:48.286Z,101579.33
2017-06-02T20:39:14.482Z,101582.41
2017-06-02T20:41:40.779Z,101582.41
2017-06-02T20:44:06.963Z,101577.88
2017-06-02T20:46:33.266Z,101576.09
2017-06-02T20:48:59.567Z,101578.73
2017-06-02T20:51:27.352Z,101580.14
2017-06-02T20:53:53.602Z,101576.95
2017-06-02T20:56:19.807Z,101580.56
2017-06-02T20:58:45.990Z,101580.08
2017-06-02T21:01:12.221Z,101574.69
2017-06-02T21:03:38.398Z,101577.81
2017-06-02T21:06:04.626Z,101572.85
2017-06-02T21:08:30.875Z,101571.50
2017-06-02T21:10:57.215Z,101567.92
2017-06-02T21:13:23.450Z,101567.50
2017-06-02T21:15:49.818Z,101558.06
2017-06-02T21:18:16.181Z,101556.28
2017-06-02T21:20:42.448Z,101560.27
2017-06-02T21:23:08.956Z,101558.50
2017-06-02T21:25:39.070Z,101566.16
2017-06-02T21:42:49.767Z,101544.91
2017-06-02T21:45:16.438Z,101536.00
2017-06-02T21:47:42.662Z,101536.09
2017-06-02T21:50:08.879Z,101535.55
2017-06-02T21:52:35.539Z,101537.34
2017-06-02T21:55:01.707Z,101535.98
2017-06-02T21:57:34.431Z,101533.29
2017-06-02T22:00:01.547Z,101532.86
2017-06-02T22:02:28.109Z,101522.98
2017-06-02T22:04:54.329Z,101525.73
2017-06-02T22:07:20.533Z,101529.24
2017-06-02T22:09:46.806Z,101526.17
2017-06-02T22:21:52.978Z,101523.25
2017-06-02T22:24:19.336Z,101520.12
2017-06-02T22:26:45.534Z,101521.47
2017-06-02T22:40:58.202Z,101490.98
2017-06-02T23:01:03.627Z,101468.86
2017-06-02T23:03:29.785Z,101464.32
2017-06-02T23:05:56.085Z,101450.52
2017-06-02T23:08:22.277Z,101458.06
2017-06-02T23:10:48.541Z,101457.52
2017-06-02T23:22:04.517Z,101439.12
2017-06-02T23:24:30.753Z,101432.38
2017-06-02T23:26:56.897Z,101431.45
2017-06-02T23:41:09.150Z,101440.90
2017-06-02T23:49:34.261Z,101449.97
2017-06-02T23:52:00.550Z,101449.59
2017-06-02T23:54:26.759Z,101452.29
2017-06-02T23:56:52.927Z,101456.34
